• Join FlightAware (Why Join?)
  • Login
  • US Flag 
11:55AM EDT


 

Airport Tracker/Info


-or-


 

Live Flight TrackerFlight Track Log ✈ DLH2061 ✈ 12-Jun-2013 ✈ EDDH / HAM - EDDM / MUC

Flight Track Log - Related Links

Times and Time Zones

All times are in EDT time to prevent confusion due to time zone crossing. See the DLH2061 flight status page for this flight to view local times or setup timezone preferences in your user account.

Time Position Orientation Groundspeed Altitude Reporting Facility
EDT Latitude Longitude Course Direction KTS MPH feet Rate Location/Type
03:51AM 50.7774 11.0120 167° South  Level Estimated
03:52AM 50.6675 11.0488 168° South  Level Estimated
03:53AM 50.5576 11.0855 168° South  Level Estimated
03:54AM 50.4477 11.1220 168° South  Level Estimated
03:55AM 50.3378 11.1583 168° South  Level Estimated
03:56AM 50.2278 11.1945 168° South  Level Estimated
03:57AM 50.1179 11.2305 168° South  Level Estimated
03:58AM 50.0079 11.2664 168° South  Level Estimated
03:59AM 49.8979 11.3020 168° South  Level Estimated
04:00AM 49.7879 11.3376 168° South  Level Estimated
04:01AM 49.6779 11.3729 168° South  Level Estimated
04:02AM 49.5679 11.4081 168° South  Level Estimated
04:03AM 49.4579 11.4431 168° South  Level Estimated
04:04AM 49.3479 11.4780 168° South  Level Estimated
04:05AM 49.2378 11.5127 168° South  Level Estimated
04:06AM 49.1278 11.5473 168° South  Level Estimated
04:07AM 49.0177 11.5817 168° South  Level Estimated
04:08AM 48.9076 11.6160 168° South  Level Estimated
04:09AM 48.7976 11.6501 168° South  Level Estimated
04:10AM 48.6875 11.6841 168° South  Level Estimated
04:11AM 48.5774 11.7179 169° South  Level Estimated
04:12AM 48.4673 11.7515 169° South  Level Estimated
04:13AM 48.3571 11.7851 169° South  Level Estimated
04:14AM 48.3538 11.7861 169° South  Level Estimated
04:15AM 48.3538 11.7861 318° Northwest  Level Estimated
04:16AM 48.3538 11.7861 318° Northwest  Level Estimated
04:17AM 48.3538 11.7861 318° Northwest  Level Estimated
04:18AM 48.3538 11.7861 318° Northwest  Level Estimated
04:19AM 48.3538 11.7861 318° Northwest  Level Estimated
04:20AM 48.3538 11.7861 318° Northwest  Level Estimated
04:21AM 48.3538 11.7861 318° Northwest  Level Estimated
04:22AM 48.3538 11.7861 318° Northwest  Level Estimated
04:23AM 48.3538 11.7861 318° Northwest  Level Estimated
04:24AM 48.3538 11.7861 318° Northwest  Level Estimated
04:25AM 48.3538 11.7861 318° Northwest  Level Estimated
04:26AM 48.3538 11.7861 318° Northwest  Level Estimated
04:27AM 48.3538 11.7861 318° Northwest  Level Estimated
04:28AM 48.3538 11.7861 318° Northwest  Level Estimated
04:29AM 48.3538 11.7861 318° Northwest  Level Estimated